sensor_id;sensor_type;location;lat;lon;timestamp;P1;durP1;ratioP1;P2;durP2;ratioP2
69551;SDS011;63774;45.292;11.784;2022-10-16T00:01:21;41.60;;;24.50;;
69551;SDS011;63774;45.292;11.784;2022-10-16T00:03:48;41.30;;;25.00;;
69551;SDS011;63774;45.292;11.784;2022-10-16T00:06:14;42.50;;;25.10;;
69551;SDS011;63774;45.292;11.784;2022-10-16T00:08:42;43.50;;;25.90;;
69551;SDS011;63774;45.292;11.784;2022-10-16T00:11:09;46.00;;;26.00;;
69551;SDS011;63774;45.292;11.784;2022-10-16T00:13:40;45.40;;;26.40;;
69551;SDS011;63774;45.292;11.784;2022-10-16T00:16:07;47.40;;;26.70;;
69551;SDS011;63774;45.292;11.784;2022-10-16T00:18:34;44.60;;;26.40;;
69551;SDS011;63774;45.292;11.784;2022-10-16T00:21:07;46.80;;;26.80;;
69551;SDS011;63774;45.292;11.784;2022-10-16T00:23:34;47.80;;;27.00;;
69551;SDS011;63774;45.292;11.784;2022-10-16T00:26:01;47.40;;;25.70;;
69551;SDS011;63774;45.292;11.784;2022-10-16T00:28:30;48.10;;;26.90;;
69551;SDS011;63774;45.292;11.784;2022-10-16T00:30:56;47.20;;;27.60;;
69551;SDS011;63774;45.292;11.784;2022-10-16T00:33:22;44.90;;;28.00;;
69551;SDS011;63774;45.292;11.784;2022-10-16T00:35:48;45.90;;;27.10;;
69551;SDS011;63774;45.292;11.784;2022-10-16T00:38:15;49.00;;;27.20;;
69551;SDS011;63774;45.292;11.784;2022-10-16T00:40:40;48.60;;;27.50;;
69551;SDS011;63774;45.292;11.784;2022-10-16T00:43:13;48.30;;;27.60;;
69551;SDS011;63774;45.292;11.784;2022-10-16T00:45:58;46.90;;;28.00;;
69551;SDS011;63774;45.292;11.784;2022-10-16T00:48:24;44.90;;;26.90;;
69551;SDS011;63774;45.292;11.784;2022-10-16T00:50:50;47.60;;;27.30;;
69551;SDS011;63774;45.292;11.784;2022-10-16T00:53:16;50.10;;;28.20;;
69551;SDS011;63774;45.292;11.784;2022-10-16T00:55:42;47.20;;;28.20;;
69551;SDS011;63774;45.292;11.784;2022-10-16T00:58:08;51.90;;;28.60;;
69551;SDS011;63774;45.292;11.784;2022-10-16T01:00:34;50.10;;;27.90;;
69551;SDS011;63774;45.292;11.784;2022-10-16T01:03:00;53.40;;;28.50;;
69551;SDS011;63774;45.292;11.784;2022-10-16T01:05:31;48.20;;;27.90;;
69551;SDS011;63774;45.292;11.784;2022-10-16T01:08:12;46.90;;;27.90;;
69551;SDS011;63774;45.292;11.784;2022-10-16T01:13:31;50.40;;;28.20;;
69551;SDS011;63774;45.292;11.784;2022-10-16T01:16:07;51.90;;;28.80;;
69551;SDS011;63774;45.292;11.784;2022-10-16T01:21:43;47.50;;;28.30;;
69551;SDS011;63774;45.292;11.784;2022-10-16T01:27:15;45.50;;;26.50;;
69551;SDS011;63774;45.292;11.784;2022-10-16T01:29:54;48.20;;;26.80;;
69551;SDS011;63774;45.292;11.784;2022-10-16T01:32:38;46.10;;;26.90;;
69551;SDS011;63774;45.292;11.784;2022-10-16T01:35:12;50.10;;;27.60;;
69551;SDS011;63774;45.292;11.784;2022-10-16T01:40:34;45.70;;;26.90;;
69551;SDS011;63774;45.292;11.784;2022-10-16T01:43:04;52.00;;;27.90;;
69551;SDS011;63774;45.292;11.784;2022-10-16T01:45:34;49.60;;;28.30;;
69551;SDS011;63774;45.292;11.784;2022-10-16T01:48:02;48.20;;;27.60;;
69551;SDS011;63774;45.292;11.784;2022-10-16T01:50:33;49.40;;;29.00;;
69551;SDS011;63774;45.292;11.784;2022-10-16T01:53:02;49.00;;;28.20;;
69551;SDS011;63774;45.292;11.784;2022-10-16T01:55:31;51.70;;;28.70;;
69551;SDS011;63774;45.292;11.784;2022-10-16T01:58:01;52.00;;;29.20;;
69551;SDS011;63774;45.292;11.784;2022-10-16T02:00:29;51.00;;;28.40;;
69551;SDS011;63774;45.292;11.784;2022-10-16T02:02:56;50.40;;;29.40;;
69551;SDS011;63774;45.292;11.784;2022-10-16T02:05:25;50.30;;;29.30;;
69551;SDS011;63774;45.292;11.784;2022-10-16T02:07:53;55.60;;;29.90;;
69551;SDS011;63774;45.292;11.784;2022-10-16T02:10:19;50.60;;;29.00;;
69551;SDS011;63774;45.292;11.784;2022-10-16T02:12:48;55.40;;;29.80;;
69551;SDS011;63774;45.292;11.784;2022-10-16T02:15:19;47.00;;;28.60;;
69551;SDS011;63774;45.292;11.784;2022-10-16T02:17:45;52.20;;;28.80;;
69551;SDS011;63774;45.292;11.784;2022-10-16T02:20:10;52.30;;;29.40;;
69551;SDS011;63774;45.292;11.784;2022-10-16T02:22:38;57.00;;;29.90;;
69551;SDS011;63774;45.292;11.784;2022-10-16T02:28:19;49.40;;;27.90;;
69551;SDS011;63774;45.292;11.784;2022-10-16T02:30:52;54.20;;;29.60;;
69551;SDS011;63774;45.292;11.784;2022-10-16T02:33:27;54.00;;;29.60;;
69551;SDS011;63774;45.292;11.784;2022-10-16T02:35:54;53.50;;;29.00;;
69551;SDS011;63774;45.292;11.784;2022-10-16T02:38:21;55.60;;;31.20;;
69551;SDS011;63774;45.292;11.784;2022-10-16T02:40:48;52.40;;;29.30;;
69551;SDS011;63774;45.292;11.784;2022-10-16T02:43:14;55.90;;;28.80;;
69551;SDS011;63774;45.292;11.784;2022-10-16T02:45:40;51.60;;;29.00;;
69551;SDS011;63774;45.292;11.784;2022-10-16T02:48:06;53.50;;;29.40;;
69551;SDS011;63774;45.292;11.784;2022-10-16T02:50:32;53.00;;;29.70;;
69551;SDS011;63774;45.292;11.784;2022-10-16T02:52:57;55.10;;;29.90;;
69551;SDS011;63774;45.292;11.784;2022-10-16T02:55:23;53.80;;;28.90;;
69551;SDS011;63774;45.292;11.784;2022-10-16T02:57:48;49.40;;;28.20;;
69551;SDS011;63774;45.292;11.784;2022-10-16T03:00:15;54.20;;;29.90;;
69551;SDS011;63774;45.292;11.784;2022-10-16T03:02:42;53.20;;;29.10;;
69551;SDS011;63774;45.292;11.784;2022-10-16T03:05:08;54.80;;;29.80;;
69551;SDS011;63774;45.292;11.784;2022-10-16T03:07:34;52.90;;;29.30;;
69551;SDS011;63774;45.292;11.784;2022-10-16T03:10:00;51.50;;;28.00;;
69551;SDS011;63774;45.292;11.784;2022-10-16T03:12:26;53.90;;;30.40;;
69551;SDS011;63774;45.292;11.784;2022-10-16T03:14:53;53.20;;;29.50;;
69551;SDS011;63774;45.292;11.784;2022-10-16T03:17:18;53.90;;;30.00;;
69551;SDS011;63774;45.292;11.784;2022-10-16T03:19:44;56.90;;;30.50;;
69551;SDS011;63774;45.292;11.784;2022-10-16T03:22:09;51.80;;;29.00;;
69551;SDS011;63774;45.292;11.784;2022-10-16T03:24:35;56.70;;;30.40;;
69551;SDS011;63774;45.292;11.784;2022-10-16T03:27:00;55.10;;;29.90;;
69551;SDS011;63774;45.292;11.784;2022-10-16T03:29:26;51.50;;;29.40;;
69551;SDS011;63774;45.292;11.784;2022-10-16T03:31:52;53.60;;;30.10;;
69551;SDS011;63774;45.292;11.784;2022-10-16T03:34:18;52.90;;;29.80;;
69551;SDS011;63774;45.292;11.784;2022-10-16T03:36:43;56.70;;;31.20;;
69551;SDS011;63774;45.292;11.784;2022-10-16T03:39:09;54.30;;;30.80;;
69551;SDS011;63774;45.292;11.784;2022-10-16T03:41:34;58.80;;;32.20;;
69551;SDS011;63774;45.292;11.784;2022-10-16T03:44:00;60.30;;;31.40;;
69551;SDS011;63774;45.292;11.784;2022-10-16T03:46:25;54.30;;;30.90;;
69551;SDS011;63774;45.292;11.784;2022-10-16T03:48:51;58.40;;;32.10;;
69551;SDS011;63774;45.292;11.784;2022-10-16T03:51:16;58.00;;;31.20;;
69551;SDS011;63774;45.292;11.784;2022-10-16T03:53:41;57.30;;;32.00;;
69551;SDS011;63774;45.292;11.784;2022-10-16T03:56:07;59.10;;;31.70;;
69551;SDS011;63774;45.292;11.784;2022-10-16T03:58:32;53.40;;;31.20;;
69551;SDS011;63774;45.292;11.784;2022-10-16T04:00:58;58.00;;;32.60;;
69551;SDS011;63774;45.292;11.784;2022-10-16T04:03:24;55.90;;;31.70;;
69551;SDS011;63774;45.292;11.784;2022-10-16T04:05:49;59.50;;;33.20;;
69551;SDS011;63774;45.292;11.784;2022-10-16T04:08:15;59.00;;;33.00;;
69551;SDS011;63774;45.292;11.784;2022-10-16T04:10:42;60.10;;;32.40;;
69551;SDS011;63774;45.292;11.784;2022-10-16T04:13:08;64.30;;;33.80;;
69551;SDS011;63774;45.292;11.784;2022-10-16T04:15:34;64.00;;;33.30;;
69551;SDS011;63774;45.292;11.784;2022-10-16T04:18:00;59.90;;;32.40;;
69551;SDS011;63774;45.292;11.784;2022-10-16T04:20:25;60.90;;;33.10;;
69551;SDS011;63774;45.292;11.784;2022-10-16T04:22:51;61.80;;;33.10;;
69551;SDS011;63774;45.292;11.784;2022-10-16T04:25:16;65.70;;;33.80;;
69551;SDS011;63774;45.292;11.784;2022-10-16T04:27:42;66.10;;;34.40;;
69551;SDS011;63774;45.292;11.784;2022-10-16T04:30:07;67.40;;;34.70;;
69551;SDS011;63774;45.292;11.784;2022-10-16T04:32:33;64.20;;;34.50;;
69551;SDS011;63774;45.292;11.784;2022-10-16T04:34:59;64.80;;;34.30;;
69551;SDS011;63774;45.292;11.784;2022-10-16T04:37:25;67.40;;;35.40;;
69551;SDS011;63774;45.292;11.784;2022-10-16T04:39:52;63.30;;;33.50;;
69551;SDS011;63774;45.292;11.784;2022-10-16T04:42:18;66.80;;;35.70;;
69551;SDS011;63774;45.292;11.784;2022-10-16T04:44:43;66.20;;;35.40;;
69551;SDS011;63774;45.292;11.784;2022-10-16T04:47:09;65.50;;;34.90;;
69551;SDS011;63774;45.292;11.784;2022-10-16T04:49:34;67.70;;;35.20;;
69551;SDS011;63774;45.292;11.784;2022-10-16T04:52:00;68.60;;;35.30;;
69551;SDS011;63774;45.292;11.784;2022-10-16T04:54:25;67.90;;;34.20;;
69551;SDS011;63774;45.292;11.784;2022-10-16T04:56:51;64.70;;;34.90;;
69551;SDS011;63774;45.292;11.784;2022-10-16T04:59:17;67.20;;;35.70;;
69551;SDS011;63774;45.292;11.784;2022-10-16T05:01:44;62.20;;;34.50;;
69551;SDS011;63774;45.292;11.784;2022-10-16T05:04:10;66.50;;;35.60;;
69551;SDS011;63774;45.292;11.784;2022-10-16T05:06:36;64.20;;;35.10;;
69551;SDS011;63774;45.292;11.784;2022-10-16T05:09:04;66.30;;;35.40;;
69551;SDS011;63774;45.292;11.784;2022-10-16T05:11:30;63.20;;;34.90;;
69551;SDS011;63774;45.292;11.784;2022-10-16T05:13:56;64.50;;;34.90;;
69551;SDS011;63774;45.292;11.784;2022-10-16T05:16:21;65.90;;;35.10;;
69551;SDS011;63774;45.292;11.784;2022-10-16T05:18:47;65.20;;;35.20;;
69551;SDS011;63774;45.292;11.784;2022-10-16T05:21:12;63.10;;;34.30;;
69551;SDS011;63774;45.292;11.784;2022-10-16T05:23:38;62.80;;;34.20;;
69551;SDS011;63774;45.292;11.784;2022-10-16T05:26:03;66.10;;;34.90;;
69551;SDS011;63774;45.292;11.784;2022-10-16T05:28:29;66.30;;;35.30;;
69551;SDS011;63774;45.292;11.784;2022-10-16T05:30:55;64.40;;;34.40;;
69551;SDS011;63774;45.292;11.784;2022-10-16T05:33:22;70.10;;;35.80;;
69551;SDS011;63774;45.292;11.784;2022-10-16T05:35:50;66.60;;;35.10;;
69551;SDS011;63774;45.292;11.784;2022-10-16T05:38:16;68.20;;;35.90;;
69551;SDS011;63774;45.292;11.784;2022-10-16T05:40:42;64.10;;;34.60;;
69551;SDS011;63774;45.292;11.784;2022-10-16T05:43:08;65.80;;;35.20;;
69551;SDS011;63774;45.292;11.784;2022-10-16T05:45:33;71.30;;;37.60;;
69551;SDS011;63774;45.292;11.784;2022-10-16T05:47:59;63.70;;;34.80;;
69551;SDS011;63774;45.292;11.784;2022-10-16T05:50:26;68.70;;;36.70;;
69551;SDS011;63774;45.292;11.784;2022-10-16T05:52:52;69.50;;;37.10;;
69551;SDS011;63774;45.292;11.784;2022-10-16T05:55:17;68.20;;;36.10;;
69551;SDS011;63774;45.292;11.784;2022-10-16T05:57:43;67.50;;;35.60;;
69551;SDS011;63774;45.292;11.784;2022-10-16T06:00:09;71.00;;;36.30;;
69551;SDS011;63774;45.292;11.784;2022-10-16T06:02:35;62.50;;;35.20;;
69551;SDS011;63774;45.292;11.784;2022-10-16T06:05:00;68.70;;;36.20;;
69551;SDS011;63774;45.292;11.784;2022-10-16T06:07:26;67.40;;;36.70;;
69551;SDS011;63774;45.292;11.784;2022-10-16T06:09:52;69.50;;;35.30;;
69551;SDS011;63774;45.292;11.784;2022-10-16T06:12:18;63.30;;;35.20;;
69551;SDS011;63774;45.292;11.784;2022-10-16T06:14:44;66.70;;;35.60;;
69551;SDS011;63774;45.292;11.784;2022-10-16T06:17:12;65.10;;;34.70;;
69551;SDS011;63774;45.292;11.784;2022-10-16T06:19:39;64.00;;;34.20;;
69551;SDS011;63774;45.292;11.784;2022-10-16T06:22:04;64.80;;;35.70;;
69551;SDS011;63774;45.292;11.784;2022-10-16T06:24:30;65.20;;;35.70;;
69551;SDS011;63774;45.292;11.784;2022-10-16T06:26:55;68.10;;;36.20;;
69551;SDS011;63774;45.292;11.784;2022-10-16T06:29:21;63.50;;;34.90;;
69551;SDS011;63774;45.292;11.784;2022-10-16T06:31:46;68.60;;;35.70;;
69551;SDS011;63774;45.292;11.784;2022-10-16T06:34:12;62.50;;;33.90;;
69551;SDS011;63774;45.292;11.784;2022-10-16T06:36:38;62.90;;;33.70;;
69551;SDS011;63774;45.292;11.784;2022-10-16T06:39:05;67.60;;;35.00;;
69551;SDS011;63774;45.292;11.784;2022-10-16T06:41:32;64.70;;;34.80;;
69551;SDS011;63774;45.292;11.784;2022-10-16T06:43:58;60.20;;;33.80;;
69551;SDS011;63774;45.292;11.784;2022-10-16T06:46:24;61.50;;;34.50;;
69551;SDS011;63774;45.292;11.784;2022-10-16T06:48:50;64.40;;;35.00;;
69551;SDS011;63774;45.292;11.784;2022-10-16T06:51:20;62.10;;;33.50;;
69551;SDS011;63774;45.292;11.784;2022-10-16T06:53:47;59.00;;;32.60;;
69551;SDS011;63774;45.292;11.784;2022-10-16T06:56:22;60.00;;;34.00;;
69551;SDS011;63774;45.292;11.784;2022-10-16T06:58:49;63.40;;;33.50;;
69551;SDS011;63774;45.292;11.784;2022-10-16T07:01:16;58.90;;;33.30;;
69551;SDS011;63774;45.292;11.784;2022-10-16T07:03:44;60.90;;;33.90;;
69551;SDS011;63774;45.292;11.784;2022-10-16T07:06:11;59.20;;;32.90;;
69551;SDS011;63774;45.292;11.784;2022-10-16T07:08:40;58.50;;;32.50;;
69551;SDS011;63774;45.292;11.784;2022-10-16T07:11:16;61.20;;;33.20;;
69551;SDS011;63774;45.292;11.784;2022-10-16T07:13:43;60.70;;;33.90;;
69551;SDS011;63774;45.292;11.784;2022-10-16T07:16:17;60.60;;;33.20;;
69551;SDS011;63774;45.292;11.784;2022-10-16T07:18:44;62.20;;;33.70;;
69551;SDS011;63774;45.292;11.784;2022-10-16T07:21:13;54.20;;;31.00;;
69551;SDS011;63774;45.292;11.784;2022-10-16T07:23:40;60.00;;;33.00;;
69551;SDS011;63774;45.292;11.784;2022-10-16T07:26:06;59.40;;;32.50;;
69551;SDS011;63774;45.292;11.784;2022-10-16T07:28:33;60.10;;;34.30;;
69551;SDS011;63774;45.292;11.784;2022-10-16T07:31:02;56.30;;;32.80;;
69551;SDS011;63774;45.292;11.784;2022-10-16T07:33:33;55.50;;;31.60;;
69551;SDS011;63774;45.292;11.784;2022-10-16T07:35:59;57.80;;;32.60;;
69551;SDS011;63774;45.292;11.784;2022-10-16T07:38:25;55.80;;;32.50;;
69551;SDS011;63774;45.292;11.784;2022-10-16T07:40:57;57.60;;;32.50;;
69551;SDS011;63774;45.292;11.784;2022-10-16T07:43:34;59.50;;;32.90;;
69551;SDS011;63774;45.292;11.784;2022-10-16T07:45:59;59.80;;;32.40;;
69551;SDS011;63774;45.292;11.784;2022-10-16T07:48:29;55.30;;;32.20;;
69551;SDS011;63774;45.292;11.784;2022-10-16T07:50:57;57.30;;;31.30;;
69551;SDS011;63774;45.292;11.784;2022-10-16T07:53:26;59.80;;;33.70;;
69551;SDS011;63774;45.292;11.784;2022-10-16T07:55:56;59.50;;;31.90;;
69551;SDS011;63774;45.292;11.784;2022-10-16T07:58:32;57.30;;;32.60;;
69551;SDS011;63774;45.292;11.784;2022-10-16T08:00:59;56.20;;;32.50;;
69551;SDS011;63774;45.292;11.784;2022-10-16T08:03:31;56.30;;;32.10;;
69551;SDS011;63774;45.292;11.784;2022-10-16T08:05:58;56.40;;;32.10;;
69551;SDS011;63774;45.292;11.784;2022-10-16T08:08:25;53.00;;;31.30;;
69551;SDS011;63774;45.292;11.784;2022-10-16T08:10:51;44.00;;;25.50;;
69551;SDS011;63774;45.292;11.784;2022-10-16T08:13:17;54.60;;;31.00;;
69551;SDS011;63774;45.292;11.784;2022-10-16T08:15:42;54.10;;;31.50;;
69551;SDS011;63774;45.292;11.784;2022-10-16T08:18:09;57.50;;;31.70;;
69551;SDS011;63774;45.292;11.784;2022-10-16T08:20:35;55.60;;;31.30;;
69551;SDS011;63774;45.292;11.784;2022-10-16T08:23:01;56.10;;;31.90;;
69551;SDS011;63774;45.292;11.784;2022-10-16T08:25:27;53.00;;;30.50;;
69551;SDS011;63774;45.292;11.784;2022-10-16T08:27:54;57.60;;;30.30;;
69551;SDS011;63774;45.292;11.784;2022-10-16T08:30:21;58.10;;;33.00;;
69551;SDS011;63774;45.292;11.784;2022-10-16T08:32:47;60.40;;;33.00;;
69551;SDS011;63774;45.292;11.784;2022-10-16T08:35:13;54.30;;;31.10;;
69551;SDS011;63774;45.292;11.784;2022-10-16T08:37:40;56.60;;;31.40;;
69551;SDS011;63774;45.292;11.784;2022-10-16T08:40:07;53.60;;;29.70;;
69551;SDS011;63774;45.292;11.784;2022-10-16T08:50:43;51.90;;;30.10;;
69551;SDS011;63774;45.292;11.784;2022-10-16T08:53:13;54.70;;;31.90;;
69551;SDS011;63774;45.292;11.784;2022-10-16T08:55:53;56.50;;;30.80;;
69551;SDS011;63774;45.292;11.784;2022-10-16T08:58:20;51.70;;;29.80;;
69551;SDS011;63774;45.292;11.784;2022-10-16T09:00:56;55.50;;;31.00;;
69551;SDS011;63774;45.292;11.784;2022-10-16T09:06:31;52.40;;;30.00;;
69551;SDS011;63774;45.292;11.784;2022-10-16T09:12:16;54.20;;;29.90;;
69551;SDS011;63774;45.292;11.784;2022-10-16T09:17:34;52.30;;;30.80;;
69551;SDS011;63774;45.292;11.784;2022-10-16T09:20:26;50.20;;;28.80;;
69551;SDS011;63774;45.292;11.784;2022-10-16T09:22:55;51.90;;;29.90;;
69551;SDS011;63774;45.292;11.784;2022-10-16T09:25:35;53.60;;;29.80;;
69551;SDS011;63774;45.292;11.784;2022-10-16T09:28:02;52.10;;;30.00;;
69551;SDS011;63774;45.292;11.784;2022-10-16T09:30:28;50.00;;;28.40;;
69551;SDS011;63774;45.292;11.784;2022-10-16T09:32:54;50.10;;;27.20;;
69551;SDS011;63774;45.292;11.784;2022-10-16T09:35:30;45.90;;;26.90;;
69551;SDS011;63774;45.292;11.784;2022-10-16T09:38:00;44.60;;;27.30;;
69551;SDS011;63774;45.292;11.784;2022-10-16T09:40:27;47.10;;;27.40;;
69551;SDS011;63774;45.292;11.784;2022-10-16T09:45:54;46.00;;;28.10;;
69551;SDS011;63774;45.292;11.784;2022-10-16T09:48:21;46.60;;;26.90;;
69551;SDS011;63774;45.292;11.784;2022-10-16T09:51:00;44.20;;;26.30;;
69551;SDS011;63774;45.292;11.784;2022-10-16T09:53:37;40.80;;;24.80;;
69551;SDS011;63774;45.292;11.784;2022-10-16T09:56:09;44.00;;;25.70;;
69551;SDS011;63774;45.292;11.784;2022-10-16T09:58:41;46.20;;;25.40;;
69551;SDS011;63774;45.292;11.784;2022-10-16T10:01:13;44.20;;;27.20;;
69551;SDS011;63774;45.292;11.784;2022-10-16T10:03:41;44.60;;;26.60;;
69551;SDS011;63774;45.292;11.784;2022-10-16T10:06:22;45.00;;;26.80;;
69551;SDS011;63774;45.292;11.784;2022-10-16T10:09:33;43.00;;;25.50;;
69551;SDS011;63774;45.292;11.784;2022-10-16T10:11:57;41.30;;;25.00;;
69551;SDS011;63774;45.292;11.784;2022-10-16T10:14:29;40.30;;;24.20;;
69551;SDS011;63774;45.292;11.784;2022-10-16T10:17:07;42.30;;;24.20;;
69551;SDS011;63774;45.292;11.784;2022-10-16T10:19:49;37.30;;;22.90;;
69551;SDS011;63774;45.292;11.784;2022-10-16T10:38:31;38.60;;;22.90;;
69551;SDS011;63774;45.292;11.784;2022-10-16T10:46:57;34.30;;;21.30;;
69551;SDS011;63774;45.292;11.784;2022-10-16T10:58:01;33.30;;;20.10;;
69551;SDS011;63774;45.292;11.784;2022-10-16T11:05:44;30.20;;;19.30;;
69551;SDS011;63774;45.292;11.784;2022-10-16T11:08:17;32.30;;;20.10;;
69551;SDS011;63774;45.292;11.784;2022-10-16T11:13:18;30.50;;;19.60;;
69551;SDS011;63774;45.292;11.784;2022-10-16T11:15:59;29.10;;;19.00;;
69551;SDS011;63774;45.292;11.784;2022-10-16T11:18:46;32.80;;;20.30;;
69551;SDS011;63774;45.292;11.784;2022-10-16T11:21:19;32.30;;;19.40;;
69551;SDS011;63774;45.292;11.784;2022-10-16T11:26:47;29.70;;;18.50;;
69551;SDS011;63774;45.292;11.784;2022-10-16T11:29:33;26.70;;;17.60;;
69551;SDS011;63774;45.292;11.784;2022-10-16T11:32:18;30.70;;;18.90;;
69551;SDS011;63774;45.292;11.784;2022-10-16T11:34:49;28.60;;;18.00;;
69551;SDS011;63774;45.292;11.784;2022-10-16T11:37:30;28.40;;;18.10;;
69551;SDS011;63774;45.292;11.784;2022-10-16T11:40:31;27.90;;;18.10;;
69551;SDS011;63774;45.292;11.784;2022-10-16T11:43:13;28.20;;;18.30;;
69551;SDS011;63774;45.292;11.784;2022-10-16T11:45:51;29.00;;;17.60;;
69551;SDS011;63774;45.292;11.784;2022-10-16T11:48:31;29.20;;;17.90;;
69551;SDS011;63774;45.292;11.784;2022-10-16T11:51:06;28.20;;;18.10;;
69551;SDS011;63774;45.292;11.784;2022-10-16T11:53:45;26.50;;;17.80;;
69551;SDS011;63774;45.292;11.784;2022-10-16T11:56:15;25.70;;;18.00;;
69551;SDS011;63774;45.292;11.784;2022-10-16T11:59:00;26.70;;;17.40;;
69551;SDS011;63774;45.292;11.784;2022-10-16T12:01:32;26.20;;;16.60;;
69551;SDS011;63774;45.292;11.784;2022-10-16T12:04:10;26.60;;;17.80;;
69551;SDS011;63774;45.292;11.784;2022-10-16T12:09:28;25.70;;;16.80;;
69551;SDS011;63774;45.292;11.784;2022-10-16T12:11:55;28.40;;;17.30;;
69551;SDS011;63774;45.292;11.784;2022-10-16T12:14:42;24.40;;;16.40;;
69551;SDS011;63774;45.292;11.784;2022-10-16T12:19:44;26.10;;;16.30;;
69551;SDS011;63774;45.292;11.784;2022-10-16T12:22:22;26.60;;;17.00;;
69551;SDS011;63774;45.292;11.784;2022-10-16T12:24:50;23.90;;;15.80;;
69551;SDS011;63774;45.292;11.784;2022-10-16T12:27:53;24.10;;;16.70;;
69551;SDS011;63774;45.292;11.784;2022-10-16T12:30:14;25.00;;;16.50;;
69551;SDS011;63774;45.292;11.784;2022-10-16T12:32:59;23.60;;;15.50;;
69551;SDS011;63774;45.292;11.784;2022-10-16T12:35:31;24.20;;;15.70;;
69551;SDS011;63774;45.292;11.784;2022-10-16T12:38:15;22.60;;;15.60;;
69551;SDS011;63774;45.292;11.784;2022-10-16T12:40:44;26.00;;;16.40;;
69551;SDS011;63774;45.292;11.784;2022-10-16T12:43:13;23.90;;;15.80;;
69551;SDS011;63774;45.292;11.784;2022-10-16T12:46:02;25.90;;;16.00;;
69551;SDS011;63774;45.292;11.784;2022-10-16T12:48:30;24.20;;;15.60;;
69551;SDS011;63774;45.292;11.784;2022-10-16T12:50:55;23.10;;;15.30;;
69551;SDS011;63774;45.292;11.784;2022-10-16T12:53:22;24.00;;;14.70;;
69551;SDS011;63774;45.292;11.784;2022-10-16T12:58:53;23.10;;;15.30;;
69551;SDS011;63774;45.292;11.784;2022-10-16T13:01:55;25.30;;;15.70;;
69551;SDS011;63774;45.292;11.784;2022-10-16T13:04:27;23.50;;;15.40;;
69551;SDS011;63774;45.292;11.784;2022-10-16T13:07:06;24.80;;;16.20;;
69551;SDS011;63774;45.292;11.784;2022-10-16T13:09:43;25.50;;;16.50;;
69551;SDS011;63774;45.292;11.784;2022-10-16T13:18:03;25.80;;;16.20;;
69551;SDS011;63774;45.292;11.784;2022-10-16T13:23:32;25.50;;;16.30;;
69551;SDS011;63774;45.292;11.784;2022-10-16T13:29:29;24.80;;;15.90;;
69551;SDS011;63774;45.292;11.784;2022-10-16T13:31:59;25.20;;;15.90;;
69551;SDS011;63774;45.292;11.784;2022-10-16T13:34:27;27.30;;;16.20;;
69551;SDS011;63774;45.292;11.784;2022-10-16T13:36:54;25.50;;;16.20;;
69551;SDS011;63774;45.292;11.784;2022-10-16T13:39:23;23.20;;;15.20;;
69551;SDS011;63774;45.292;11.784;2022-10-16T13:42:00;24.80;;;15.60;;
69551;SDS011;63774;45.292;11.784;2022-10-16T13:44:31;22.70;;;15.10;;
69551;SDS011;63774;45.292;11.784;2022-10-16T13:47:18;23.20;;;15.30;;
69551;SDS011;63774;45.292;11.784;2022-10-16T13:49:45;25.00;;;16.40;;
69551;SDS011;63774;45.292;11.784;2022-10-16T13:52:19;22.00;;;14.80;;
69551;SDS011;63774;45.292;11.784;2022-10-16T13:54:46;23.90;;;15.50;;
69551;SDS011;63774;45.292;11.784;2022-10-16T13:57:16;27.00;;;16.00;;
69551;SDS011;63774;45.292;11.784;2022-10-16T13:59:42;23.70;;;16.00;;
69551;SDS011;63774;45.292;11.784;2022-10-16T14:02:18;27.20;;;16.10;;
69551;SDS011;63774;45.292;11.784;2022-10-16T14:04:45;25.60;;;15.80;;
69551;SDS011;63774;45.292;11.784;2022-10-16T14:07:21;26.00;;;16.50;;
69551;SDS011;63774;45.292;11.784;2022-10-16T14:09:51;24.50;;;16.50;;
69551;SDS011;63774;45.292;11.784;2022-10-16T14:12:18;24.80;;;15.90;;
69551;SDS011;63774;45.292;11.784;2022-10-16T14:14:54;25.80;;;15.70;;
69551;SDS011;63774;45.292;11.784;2022-10-16T14:17:26;24.60;;;15.40;;
69551;SDS011;63774;45.292;11.784;2022-10-16T14:19:54;26.00;;;16.60;;
69551;SDS011;63774;45.292;11.784;2022-10-16T14:25:26;24.40;;;16.30;;
69551;SDS011;63774;45.292;11.784;2022-10-16T14:27:58;29.70;;;17.30;;
69551;SDS011;63774;45.292;11.784;2022-10-16T14:30:29;26.40;;;17.00;;
69551;SDS011;63774;45.292;11.784;2022-10-16T14:33:06;26.70;;;16.90;;
69551;SDS011;63774;45.292;11.784;2022-10-16T14:35:45;26.30;;;16.70;;
69551;SDS011;63774;45.292;11.784;2022-10-16T14:38:17;26.00;;;17.40;;
69551;SDS011;63774;45.292;11.784;2022-10-16T14:40:46;26.90;;;16.40;;
69551;SDS011;63774;45.292;11.784;2022-10-16T14:43:21;25.20;;;15.60;;
69551;SDS011;63774;45.292;11.784;2022-10-16T14:45:50;24.90;;;16.50;;
69551;SDS011;63774;45.292;11.784;2022-10-16T14:48:19;27.10;;;17.20;;
69551;SDS011;63774;45.292;11.784;2022-10-16T14:50:46;25.90;;;17.00;;
69551;SDS011;63774;45.292;11.784;2022-10-16T14:53:12;26.90;;;16.90;;
69551;SDS011;63774;45.292;11.784;2022-10-16T14:55:41;25.10;;;16.60;;
69551;SDS011;63774;45.292;11.784;2022-10-16T14:58:21;23.10;;;15.60;;
69551;SDS011;63774;45.292;11.784;2022-10-16T15:00:50;26.20;;;16.50;;
69551;SDS011;63774;45.292;11.784;2022-10-16T15:03:15;24.80;;;16.40;;
69551;SDS011;63774;45.292;11.784;2022-10-16T15:05:41;26.10;;;17.00;;
69551;SDS011;63774;45.292;11.784;2022-10-16T15:08:07;23.40;;;16.30;;
69551;SDS011;63774;45.292;11.784;2022-10-16T15:10:33;25.70;;;16.90;;
69551;SDS011;63774;45.292;11.784;2022-10-16T15:13:04;25.00;;;16.30;;
69551;SDS011;63774;45.292;11.784;2022-10-16T15:15:33;25.40;;;16.40;;
69551;SDS011;63774;45.292;11.784;2022-10-16T15:18:02;28.80;;;16.60;;
69551;SDS011;63774;45.292;11.784;2022-10-16T15:20:29;24.40;;;16.00;;
69551;SDS011;63774;45.292;11.784;2022-10-16T15:22:59;25.20;;;17.10;;
69551;SDS011;63774;45.292;11.784;2022-10-16T15:25:27;23.70;;;15.90;;
69551;SDS011;63774;45.292;11.784;2022-10-16T15:28:00;23.20;;;16.10;;
69551;SDS011;63774;45.292;11.784;2022-10-16T15:30:27;24.80;;;16.30;;
69551;SDS011;63774;45.292;11.784;2022-10-16T15:32:53;25.90;;;15.90;;
69551;SDS011;63774;45.292;11.784;2022-10-16T15:35:19;26.00;;;16.60;;
69551;SDS011;63774;45.292;11.784;2022-10-16T15:37:45;24.00;;;15.00;;
69551;SDS011;63774;45.292;11.784;2022-10-16T15:40:12;25.30;;;16.80;;
69551;SDS011;63774;45.292;11.784;2022-10-16T15:42:38;26.50;;;15.70;;
69551;SDS011;63774;45.292;11.784;2022-10-16T15:45:04;25.10;;;16.30;;
69551;SDS011;63774;45.292;11.784;2022-10-16T15:47:31;23.70;;;16.20;;
69551;SDS011;63774;45.292;11.784;2022-10-16T15:49:57;24.40;;;15.90;;
69551;SDS011;63774;45.292;11.784;2022-10-16T15:52:23;25.60;;;16.50;;
69551;SDS011;63774;45.292;11.784;2022-10-16T15:54:49;23.90;;;15.90;;
69551;SDS011;63774;45.292;11.784;2022-10-16T15:57:14;25.30;;;16.60;;
69551;SDS011;63774;45.292;11.784;2022-10-16T15:59:40;23.50;;;16.50;;
69551;SDS011;63774;45.292;11.784;2022-10-16T16:02:05;23.70;;;16.90;;